createdAt,value
2019-03-27T00:02:53.016Z,24.10
2019-03-27T00:07:58.411Z,21.47
2019-03-27T00:13:04.519Z,27.20
2019-03-27T00:18:10.107Z,20.97
2019-03-27T00:23:15.616Z,25.60
2019-03-27T00:28:21.142Z,26.07
2019-03-27T00:33:26.729Z,26.03
2019-03-27T00:38:33.204Z,26.43
2019-03-27T00:43:45.787Z,28.73
2019-03-27T00:54:10.004Z,25.23
2019-03-27T00:59:23.577Z,20.63
2019-03-27T01:04:54.210Z,31.97
2019-03-27T01:10:03.882Z,28.67
2019-03-27T01:15:10.008Z,24.83
2019-03-27T01:20:17.448Z,23.27
2019-03-27T01:25:23.218Z,25.10
2019-03-27T01:30:29.102Z,27.33
2019-03-27T01:35:34.706Z,26.93
2019-03-27T01:40:39.896Z,31.60
2019-03-27T01:45:52.969Z,32.53
2019-03-27T01:50:52.749Z,27.50
2019-03-27T01:55:59.432Z,29.27
2019-03-27T02:01:05.488Z,31.27
2019-03-27T02:06:10.892Z,33.63
2019-03-27T02:11:16.258Z,26.47
2019-03-27T02:16:20.640Z,28.33
2019-03-27T02:21:25.819Z,31.87
2019-03-27T02:26:30.997Z,25.27
2019-03-27T02:31:35.438Z,26.77
2019-03-27T02:36:40.251Z,29.93
2019-03-27T02:41:44.695Z,31.10
2019-03-27T02:46:50.367Z,29.93
2019-03-27T02:51:55.389Z,30.50
2019-03-27T02:57:00.076Z,31.13
2019-03-27T03:02:04.800Z,27.47
2019-03-27T03:07:10.313Z,32.67
2019-03-27T03:12:15.838Z,29.47
2019-03-27T03:17:21.649Z,31.67
2019-03-27T03:22:27.998Z,32.90
2019-03-27T03:27:33.577Z,26.47
2019-03-27T03:32:39.409Z,31.77
2019-03-27T03:37:45.498Z,35.60
2019-03-27T03:42:51.118Z,32.80
2019-03-27T03:47:56.769Z,32.70
2019-03-27T03:53:03.166Z,42.70
2019-03-27T03:58:10.894Z,40.13
2019-03-27T04:03:18.180Z,37.30
2019-03-27T04:08:23.868Z,39.10
2019-03-27T04:13:29.565Z,41.67
2019-03-27T04:18:34.873Z,38.20
2019-03-27T04:23:42.527Z,40.03
2019-03-27T04:28:47.832Z,38.50
2019-03-27T04:33:53.582Z,39.40
2019-03-27T04:38:59.767Z,45.23
2019-03-27T04:44:06.304Z,36.53
2019-03-27T04:49:11.981Z,36.80
2019-03-27T04:54:17.695Z,41.27
2019-03-27T04:59:23.950Z,34.87
2019-03-27T05:09:45.955Z,37.00
2019-03-27T05:14:51.646Z,40.27
2019-03-27T05:19:57.422Z,41.37
2019-03-27T05:25:04.033Z,46.37
2019-03-27T05:30:09.987Z,38.40
2019-03-27T05:35:15.613Z,34.60
2019-03-27T05:40:21.138Z,45.87
2019-03-27T05:45:35.445Z,37.20
2019-03-27T05:50:41.904Z,36.67
2019-03-27T05:55:48.227Z,39.80
2019-03-27T06:00:58.171Z,41.30
2019-03-27T06:06:05.468Z,43.17
2019-03-27T06:11:15.078Z,39.50
2019-03-27T06:16:19.994Z,38.17
2019-03-27T06:21:24.742Z,47.60
2019-03-27T06:26:31.236Z,48.17
2019-03-27T06:31:37.209Z,42.83
2019-03-27T06:36:43.048Z,42.60
2019-03-27T06:41:56.770Z,46.37
2019-03-27T06:47:01.783Z,50.13
2019-03-27T06:52:06.759Z,53.10
2019-03-27T06:57:12.541Z,46.43
2019-03-27T07:02:18.086Z,46.80
2019-03-27T07:07:23.123Z,48.90
2019-03-27T07:12:29.483Z,45.17
2019-03-27T07:17:35.565Z,55.67
2019-03-27T07:22:41.444Z,43.97
2019-03-27T07:27:50.595Z,47.57
2019-03-27T07:32:59.336Z,45.30
2019-03-27T07:38:04.870Z,54.70
2019-03-27T07:43:10.938Z,42.77
2019-03-27T07:48:16.954Z,42.37
2019-03-27T07:53:22.802Z,56.63
2019-03-27T07:58:28.348Z,43.13
2019-03-27T08:03:34.150Z,53.17
2019-03-27T08:08:40.628Z,43.27
2019-03-27T08:13:46.230Z,48.87
2019-03-27T08:18:52.516Z,48.77
2019-03-27T08:23:58.275Z,49.97
2019-03-27T08:29:05.471Z,41.53
2019-03-27T08:34:11.763Z,47.33
2019-03-27T08:39:17.296Z,44.73
2019-03-27T08:44:23.258Z,41.30
2019-03-27T08:49:28.789Z,37.87
2019-03-27T08:54:34.275Z,39.97
2019-03-27T08:59:40.748Z,37.70
2019-03-27T09:04:46.931Z,37.60
2019-03-27T09:09:54.483Z,28.70
2019-03-27T09:15:00.349Z,34.90
2019-03-27T09:20:07.188Z,33.40
2019-03-27T09:25:13.171Z,32.73
2019-03-27T09:30:20.213Z,29.53
2019-03-27T09:35:26.202Z,27.50
2019-03-27T09:40:31.736Z,29.43
2019-03-27T09:45:51.781Z,29.17
2019-03-27T09:50:55.904Z,28.37
2019-03-27T09:55:59.876Z,28.50
2019-03-27T10:01:06.969Z,24.67
2019-03-27T10:06:10.963Z,28.53
2019-03-27T10:11:15.036Z,30.27
2019-03-27T10:16:21.900Z,23.90
2019-03-27T10:21:29.548Z,23.00
2019-03-27T10:26:34.852Z,25.77
2019-03-27T10:31:49.080Z,23.83
2019-03-27T10:36:55.851Z,8.53
2019-03-27T10:42:01.193Z,13.93
2019-03-27T10:47:24.634Z,14.90
2019-03-27T10:52:30.954Z,18.60
2019-03-27T10:57:40.707Z,16.60
2019-03-27T11:02:46.197Z,16.13
2019-03-27T11:07:52.114Z,12.60
2019-03-27T11:12:59.953Z,11.47
2019-03-27T11:18:08.280Z,14.67
2019-03-27T11:23:14.598Z,9.80
2019-03-27T11:28:19.881Z,7.80
2019-03-27T11:33:28.823Z,8.90
2019-03-27T11:38:33.164Z,6.80
2019-03-27T11:43:38.794Z,10.47
2019-03-27T11:48:44.448Z,7.73
2019-03-27T11:53:50.247Z,7.80
2019-03-27T11:58:57.505Z,10.57
2019-03-27T12:09:17.832Z,10.70
2019-03-27T12:14:25.028Z,9.93
2019-03-27T12:19:31.031Z,9.33
2019-03-27T12:24:36.861Z,6.90
2019-03-27T12:29:42.547Z,6.30
2019-03-27T12:34:48.191Z,10.03
2019-03-27T12:39:53.637Z,9.77
2019-03-27T12:45:01.617Z,8.27
2019-03-27T12:50:06.951Z,8.97
2019-03-27T12:55:12.856Z,9.50
2019-03-27T13:00:19.165Z,8.97
2019-03-27T13:05:25.298Z,12.03
2019-03-27T13:10:31.563Z,14.20
2019-03-27T13:15:37.690Z,10.43
2019-03-27T13:20:43.440Z,12.60
2019-03-27T13:25:49.364Z,10.17
2019-03-27T13:30:55.014Z,8.33
2019-03-27T13:36:00.685Z,8.67
2019-03-27T13:41:05.837Z,7.43
2019-03-27T13:46:10.889Z,10.40
2019-03-27T13:51:16.084Z,10.80
2019-03-27T13:56:20.860Z,9.23
2019-03-27T14:01:26.227Z,8.30
2019-03-27T14:06:31.050Z,9.87
2019-03-27T14:11:35.921Z,9.40
2019-03-27T14:16:41.792Z,8.53
2019-03-27T14:21:54.624Z,8.00
2019-03-27T14:26:54.433Z,8.87
2019-03-27T14:32:00.012Z,10.93
2019-03-27T14:37:06.020Z,7.90
2019-03-27T14:42:11.774Z,6.67
2019-03-27T14:47:18.256Z,7.27
2019-03-27T14:52:24.156Z,8.57
2019-03-27T14:57:29.899Z,7.87
2019-03-27T15:02:35.084Z,6.40
2019-03-27T15:07:41.022Z,10.23
2019-03-27T15:12:46.634Z,7.93
2019-03-27T15:17:53.608Z,12.60
2019-03-27T15:23:02.002Z,9.37
2019-03-27T15:28:09.818Z,9.40
2019-03-27T15:33:15.135Z,10.57
2019-03-27T15:38:20.768Z,12.30
2019-03-27T15:43:26.736Z,9.07
2019-03-27T15:48:32.376Z,10.30
2019-03-27T15:53:37.956Z,12.33
2019-03-27T15:58:43.600Z,6.83
2019-03-27T16:03:49.372Z,9.63
2019-03-27T16:08:55.638Z,8.90
2019-03-27T16:14:01.726Z,10.67
2019-03-27T16:19:08.491Z,8.40
2019-03-27T16:24:14.232Z,13.17
2019-03-27T16:29:19.844Z,10.63
2019-03-27T16:34:25.488Z,9.83
2019-03-27T16:39:30.985Z,12.00
2019-03-27T16:44:36.817Z,15.07
2019-03-27T16:49:42.778Z,11.73
2019-03-27T16:54:48.905Z,10.00
2019-03-27T16:59:54.915Z,8.97
2019-03-27T17:05:00.665Z,10.37
2019-03-27T17:10:06.955Z,10.00
2019-03-27T17:15:12.955Z,8.90
2019-03-27T17:20:19.531Z,9.83
2019-03-27T17:25:25.487Z,15.00
2019-03-27T17:30:32.029Z,14.80
2019-03-27T17:35:37.772Z,10.87
2019-03-27T17:40:42.426Z,13.27
2019-03-27T17:45:46.608Z,16.37
2019-03-27T17:50:50.770Z,11.30
2019-03-27T17:55:54.976Z,18.77
2019-03-27T18:01:03.002Z,14.90
2019-03-27T18:06:07.086Z,12.90
2019-03-27T18:11:11.801Z,19.03
2019-03-27T18:16:17.391Z,19.87
2019-03-27T18:21:21.774Z,10.80
2019-03-27T18:26:26.232Z,9.87
2019-03-27T18:31:31.660Z,10.50
2019-03-27T18:36:36.781Z,13.87
2019-03-27T18:41:41.462Z,31.40
2019-03-27T18:46:46.492Z,18.07
2019-03-27T18:52:07.465Z,24.63
2019-03-27T18:57:12.850Z,14.10
2019-03-27T19:02:18.210Z,16.67
2019-03-27T19:07:23.091Z,19.90
2019-03-27T19:12:27.603Z,18.60
2019-03-27T19:17:33.158Z,17.77
2019-03-27T19:22:39.507Z,13.30
2019-03-27T19:27:45.242Z,13.20
2019-03-27T19:32:51.632Z,14.97
2019-03-27T19:37:57.936Z,13.00
2019-03-27T19:43:04.461Z,13.87
2019-03-27T19:48:10.877Z,13.57
2019-03-27T19:53:16.772Z,18.27
2019-03-27T19:58:23.106Z,19.10
2019-03-27T20:03:28.955Z,16.07
2019-03-27T20:08:35.076Z,15.63
2019-03-27T20:13:40.985Z,12.90
2019-03-27T20:18:47.098Z,19.43
2019-03-27T20:23:54.581Z,15.00
2019-03-27T20:29:01.071Z,17.77
2019-03-27T20:34:07.933Z,22.63
2019-03-27T20:39:14.264Z,24.73
2019-03-27T20:44:20.134Z,21.50
2019-03-27T20:49:26.598Z,29.40
2019-03-27T20:54:32.894Z,18.47
2019-03-27T20:59:38.466Z,15.43
2019-03-27T21:04:43.894Z,18.70
2019-03-27T21:09:49.441Z,16.23
2019-03-27T21:14:55.043Z,19.67
2019-03-27T21:20:00.402Z,18.20
2019-03-27T21:25:09.305Z,29.00
2019-03-27T21:30:15.955Z,20.27
2019-03-27T21:35:21.474Z,23.50
2019-03-27T21:40:27.567Z,22.10
2019-03-27T21:45:32.463Z,17.93
2019-03-27T21:50:37.445Z,16.33
2019-03-27T21:55:43.894Z,14.73
2019-03-27T22:00:49.664Z,15.73
2019-03-27T22:05:56.171Z,20.70
2019-03-27T22:11:01.029Z,24.87
2019-03-27T22:16:06.515Z,17.50
2019-03-27T22:21:13.882Z,19.90
2019-03-27T22:26:19.561Z,19.07
2019-03-27T22:31:24.387Z,22.20
2019-03-27T22:36:29.346Z,21.67
2019-03-27T22:41:33.874Z,19.23
2019-03-27T22:46:39.684Z,23.30
2019-03-27T22:51:44.370Z,23.30
2019-03-27T22:56:54.891Z,18.00
2019-03-27T23:01:59.819Z,18.73
2019-03-27T23:07:04.000Z,17.00
2019-03-27T23:12:18.572Z,17.70
2019-03-27T23:17:32.434Z,20.00
2019-03-27T23:22:38.897Z,20.07
2019-03-27T23:43:52.127Z,17.73
2019-03-27T23:49:03.259Z,16.50
2019-03-27T23:54:09.099Z,17.77
2019-03-27T23:59:14.393Z,17.57
